createdAt,value
2023-01-01T00:01:22.365Z,13.50
2023-01-01T00:03:51.868Z,13.50
2023-01-01T00:06:19.249Z,13.40
2023-01-01T00:08:47.963Z,13.40
2023-01-01T00:11:15.375Z,13.40
2023-01-01T00:13:42.737Z,13.30
2023-01-01T00:16:14.657Z,13.40
2023-01-01T00:18:41.636Z,13.40
2023-01-01T00:21:13.923Z,13.40
2023-01-01T00:23:41.276Z,13.40
2023-01-01T00:26:14.805Z,13.40
2023-01-01T00:28:42.577Z,13.40
2023-01-01T00:31:20.435Z,13.40
2023-01-01T00:33:55.377Z,13.40
2023-01-01T00:36:25.400Z,13.40
2023-01-01T00:39:52.258Z,13.50
2023-01-01T00:42:19.279Z,13.40
2023-01-01T00:44:46.190Z,13.40
2023-01-01T00:47:13.055Z,13.40
2023-01-01T00:49:39.929Z,13.40
2023-01-01T00:52:06.781Z,13.40
2023-01-01T00:54:33.600Z,13.40
2023-01-01T00:57:00.493Z,13.40
2023-01-01T00:59:29.064Z,13.40
2023-01-01T01:01:56.547Z,13.40
2023-01-01T01:04:23.687Z,13.30
2023-01-01T01:06:50.520Z,13.20
2023-01-01T01:09:17.402Z,13.20
2023-01-01T01:11:44.285Z,13.20
2023-01-01T01:14:11.223Z,13.20
2023-01-01T01:16:38.158Z,13.10
2023-01-01T01:19:06.393Z,13.10
2023-01-01T01:21:34.823Z,13.10
2023-01-01T01:24:04.023Z,13.10
2023-01-01T01:26:34.493Z,13.00
2023-01-01T01:29:01.625Z,13.00
2023-01-01T01:31:31.755Z,13.00
2023-01-01T01:33:58.912Z,12.90
2023-01-01T01:36:27.470Z,12.90
2023-01-01T01:38:55.235Z,12.80
2023-01-01T01:41:28.243Z,12.80
2023-01-01T01:44:43.181Z,12.80
2023-01-01T01:47:29.628Z,12.80
2023-01-01T01:50:08.860Z,12.80
2023-01-01T01:52:40.312Z,12.80
2023-01-01T01:55:09.787Z,12.80
2023-01-01T01:57:40.345Z,12.90
2023-01-01T02:00:11.534Z,12.90
2023-01-01T02:02:59.706Z,13.00
2023-01-01T02:05:27.363Z,13.00
2023-01-01T02:07:55.362Z,13.10
2023-01-01T02:10:22.583Z,13.20
2023-01-01T02:12:49.580Z,13.20
2023-01-01T02:15:16.724Z,13.30
2023-01-01T02:17:51.265Z,13.40
2023-01-01T02:20:48.486Z,13.50
2023-01-01T02:24:06.687Z,13.60
2023-01-01T02:26:54.217Z,13.70
2023-01-01T02:29:48.121Z,13.80
2023-01-01T02:32:23.382Z,13.80
2023-01-01T02:35:29.219Z,13.80
2023-01-01T02:38:15.376Z,13.80
2023-01-01T02:40:50.339Z,13.80
2023-01-01T02:43:22.990Z,13.70
2023-01-01T02:45:54.129Z,13.80
2023-01-01T02:48:47.713Z,13.70
2023-01-01T02:51:14.559Z,13.80
2023-01-01T02:54:08.994Z,13.80
2023-01-01T02:56:54.229Z,13.80
2023-01-01T02:59:56.616Z,13.90
2023-01-01T03:02:57.231Z,13.90
2023-01-01T03:05:30.502Z,13.90
2023-01-01T03:08:17.458Z,13.90
2023-01-01T03:11:12.909Z,13.90
2023-01-01T03:14:01.247Z,13.80
2023-01-01T03:16:34.485Z,13.80
2023-01-01T03:19:24.018Z,13.80
2023-01-01T03:22:34.971Z,13.80
2023-01-01T03:25:14.301Z,13.80
2023-01-01T03:27:48.224Z,13.80
2023-01-01T03:30:19.852Z,13.80
2023-01-01T03:33:06.014Z,13.80
2023-01-01T03:35:51.006Z,13.80
2023-01-01T03:38:40.489Z,13.80
2023-01-01T03:41:32.561Z,13.80
2023-01-01T03:44:18.856Z,13.70
2023-01-01T03:46:46.649Z,13.70
2023-01-01T03:49:15.644Z,13.60
2023-01-01T03:52:19.851Z,13.60
2023-01-01T03:54:58.566Z,13.60
2023-01-01T03:58:03.711Z,13.60
2023-01-01T04:01:13.711Z,13.50
2023-01-01T04:03:42.762Z,13.50
2023-01-01T04:06:11.991Z,13.50
2023-01-01T04:08:39.441Z,13.50
2023-01-01T04:11:35.304Z,13.50
2023-01-01T04:14:02.339Z,13.50
2023-01-01T04:16:29.345Z,13.50
2023-01-01T04:18:56.249Z,13.40
2023-01-01T04:21:23.126Z,13.40
2023-01-01T04:23:49.966Z,13.50
2023-01-01T04:26:17.276Z,13.40
2023-01-01T04:28:44.241Z,13.40
2023-01-01T04:31:11.793Z,13.30
2023-01-01T04:33:38.879Z,13.30
2023-01-01T04:36:08.633Z,13.20
2023-01-01T04:38:37.354Z,13.20
2023-01-01T04:41:05.170Z,13.10
2023-01-01T04:43:32.280Z,13.00
2023-01-01T04:46:01.669Z,13.00
2023-01-01T04:48:30.905Z,12.90
2023-01-01T04:51:05.000Z,12.80
2023-01-01T04:53:34.527Z,12.80
2023-01-01T04:56:06.156Z,12.70
2023-01-01T04:58:34.144Z,12.70
2023-01-01T05:01:01.338Z,12.70
2023-01-01T05:03:29.020Z,12.60
2023-01-01T05:06:07.994Z,12.50
2023-01-01T05:08:38.792Z,12.50
2023-01-01T05:11:08.913Z,12.50
2023-01-01T05:13:38.639Z,12.50
2023-01-01T05:16:08.226Z,12.40
2023-01-01T05:18:36.974Z,12.30
2023-01-01T05:21:12.126Z,12.30
2023-01-01T05:23:39.572Z,12.30
2023-01-01T05:26:19.116Z,12.30
2023-01-01T05:28:47.780Z,12.30
2023-01-01T05:31:24.492Z,12.20
2023-01-01T05:33:52.737Z,12.30
2023-01-01T05:36:38.234Z,12.30
2023-01-01T05:39:07.481Z,12.20
2023-01-01T05:41:37.987Z,12.20
2023-01-01T05:44:07.357Z,12.20
2023-01-01T05:46:34.704Z,12.20
2023-01-01T05:49:01.637Z,12.20
2023-01-01T05:53:58.863Z,12.20
2023-01-01T05:56:26.958Z,12.20
2023-01-01T05:58:55.094Z,12.20
2023-01-01T06:01:23.297Z,12.30
2023-01-01T06:03:52.116Z,12.30
2023-01-01T06:06:28.889Z,12.30
2023-01-01T06:09:02.491Z,12.20
2023-01-01T06:11:30.538Z,12.20
2023-01-01T06:14:00.475Z,12.20
2023-01-01T06:16:29.208Z,12.20
2023-01-01T06:18:56.258Z,12.20
2023-01-01T06:21:26.601Z,12.20
2023-01-01T06:23:56.731Z,12.20
2023-01-01T06:26:30.213Z,12.20
2023-01-01T06:28:57.798Z,12.20
2023-01-01T06:31:27.328Z,12.10
2023-01-01T06:33:54.204Z,12.10
2023-01-01T06:36:24.504Z,12.10
2023-01-01T06:38:56.032Z,12.10
2023-01-01T06:41:25.660Z,12.10
2023-01-01T06:43:55.005Z,12.10
2023-01-01T06:46:31.634Z,12.10
2023-01-01T06:49:11.439Z,12.10
2023-01-01T06:51:41.727Z,12.10
2023-01-01T06:54:10.171Z,12.10
2023-01-01T06:56:38.401Z,12.00
2023-01-01T06:59:05.724Z,12.00
2023-01-01T07:01:36.225Z,11.90
2023-01-01T07:04:07.765Z,11.90
2023-01-01T07:06:35.894Z,11.90
2023-01-01T07:09:03.856Z,11.90
2023-01-01T07:11:30.987Z,11.80
2023-01-01T07:13:57.983Z,11.80
2023-01-01T07:16:26.086Z,11.80
2023-01-01T07:18:53.723Z,11.80
2023-01-01T07:21:45.013Z,11.80
2023-01-01T07:24:15.544Z,11.80
2023-01-01T07:26:42.478Z,11.80
2023-01-01T07:29:09.586Z,11.80
2023-01-01T07:31:39.898Z,11.80
2023-01-01T07:34:12.876Z,11.70
2023-01-01T07:36:39.700Z,11.70
2023-01-01T07:39:06.620Z,11.70
2023-01-01T07:41:33.609Z,11.60
2023-01-01T07:44:00.563Z,11.70
2023-01-01T07:46:28.174Z,11.60
2023-01-01T07:48:55.119Z,11.60
2023-01-01T07:51:22.078Z,11.70
2023-01-01T07:53:48.998Z,11.70
2023-01-01T07:56:15.875Z,11.70
2023-01-01T07:58:43.524Z,11.70
2023-01-01T08:01:14.542Z,11.70
2023-01-01T08:03:42.057Z,11.70
2023-01-01T08:06:11.796Z,11.80
2023-01-01T08:08:39.725Z,11.80
2023-01-01T08:11:06.560Z,11.80
2023-01-01T08:13:33.537Z,11.90
2023-01-01T08:16:21.355Z,11.90
2023-01-01T08:18:48.197Z,12.10
2023-01-01T08:21:14.997Z,12.10
2023-01-01T08:23:41.810Z,12.20
2023-01-01T08:26:18.080Z,12.30
2023-01-01T08:28:45.005Z,12.40
2023-01-01T08:31:11.832Z,12.60
2023-01-01T08:33:41.077Z,12.70
2023-01-01T08:36:13.012Z,12.90
2023-01-01T08:38:39.960Z,13.10
2023-01-01T08:41:08.675Z,13.40
2023-01-01T08:43:35.683Z,13.70
2023-01-01T08:46:02.524Z,14.10
2023-01-01T08:48:31.001Z,14.40
2023-01-01T08:51:00.640Z,14.90
2023-01-01T08:53:29.947Z,15.30
2023-01-01T08:56:11.097Z,15.70
2023-01-01T08:58:40.624Z,16.10
2023-01-01T09:01:09.121Z,16.50
2023-01-01T09:03:37.980Z,16.80
2023-01-01T09:06:05.125Z,17.10
2023-01-01T09:08:42.251Z,17.50
2023-01-01T09:11:50.610Z,17.90
2023-01-01T09:14:20.210Z,18.20
2023-01-01T09:16:47.234Z,18.60
2023-01-01T09:19:14.451Z,18.80
2023-01-01T09:21:41.299Z,19.10
2023-01-01T09:24:08.610Z,19.30
2023-01-01T09:26:35.453Z,19.60
2023-01-01T09:29:18.424Z,19.80
2023-01-01T09:31:45.585Z,20.10
2023-01-01T09:34:13.163Z,20.20
2023-01-01T09:36:40.113Z,20.30
2023-01-01T09:39:06.987Z,20.40
2023-01-01T09:42:05.511Z,20.40
2023-01-01T09:45:10.186Z,20.40
2023-01-01T09:47:45.537Z,20.50
2023-01-01T09:50:23.727Z,20.60
2023-01-01T09:53:03.417Z,20.70
2023-01-01T09:55:50.630Z,20.90
2023-01-01T09:58:24.852Z,21.20
2023-01-01T10:00:57.341Z,21.40
2023-01-01T10:04:20.676Z,21.80
2023-01-01T10:07:34.736Z,22.20
2023-01-01T10:10:31.647Z,22.70
2023-01-01T10:13:34.509Z,23.20
2023-01-01T10:16:31.694Z,23.70
2023-01-01T10:19:21.646Z,24.30
2023-01-01T10:21:53.792Z,24.70
2023-01-01T10:24:42.159Z,25.00
2023-01-01T10:27:27.933Z,25.30
2023-01-01T10:29:59.672Z,25.40
2023-01-01T10:32:36.521Z,25.40
2023-01-01T10:35:15.296Z,25.30
2023-01-01T10:37:42.788Z,25.30
2023-01-01T10:40:19.264Z,25.10
2023-01-01T10:42:52.945Z,25.00
2023-01-01T10:45:43.204Z,24.80
2023-01-01T10:48:16.039Z,24.60
2023-01-01T10:50:53.416Z,24.30
2023-01-01T10:53:32.246Z,24.00
2023-01-01T10:56:05.166Z,23.60
2023-01-01T10:58:51.917Z,23.30
2023-01-01T11:01:18.803Z,23.00
2023-01-01T11:04:04.230Z,22.70
2023-01-01T11:06:51.988Z,22.40
2023-01-01T11:09:27.275Z,22.20
2023-01-01T11:12:09.385Z,22.00
2023-01-01T11:14:50.352Z,21.80
2023-01-01T11:17:41.826Z,21.70
2023-01-01T11:20:20.172Z,21.60
2023-01-01T11:22:53.140Z,21.60
2023-01-01T11:25:32.503Z,21.50
2023-01-01T11:28:23.400Z,21.50
2023-01-01T11:31:12.638Z,21.50
2023-01-01T11:33:53.025Z,21.40
2023-01-01T11:36:32.956Z,21.40
2023-01-01T11:39:26.930Z,21.40
2023-01-01T11:42:00.874Z,21.30
2023-01-01T11:44:42.199Z,21.40
2023-01-01T11:47:33.888Z,21.40
2023-01-01T11:50:16.301Z,21.40
2023-01-01T11:52:48.254Z,21.40
2023-01-01T11:55:38.010Z,21.40
2023-01-01T11:58:29.543Z,21.50
2023-01-01T12:01:03.859Z,21.50
2023-01-01T12:03:52.970Z,21.50
2023-01-01T12:07:15.624Z,21.50
2023-01-01T12:10:01.486Z,21.40
2023-01-01T12:13:06.377Z,21.40
2023-01-01T12:15:48.224Z,21.40
2023-01-01T12:18:47.516Z,21.40
2023-01-01T12:21:28.851Z,21.30
2023-01-01T12:23:56.613Z,21.30
2023-01-01T12:27:10.570Z,21.30
2023-01-01T12:30:01.279Z,21.30
2023-01-01T12:33:07.915Z,21.30
2023-01-01T12:36:11.087Z,21.20
2023-01-01T12:39:03.829Z,21.30
2023-01-01T12:41:54.080Z,21.20
2023-01-01T12:44:45.660Z,21.20
2023-01-01T12:47:54.452Z,21.20
2023-01-01T12:51:05.196Z,21.20
2023-01-01T12:54:08.983Z,21.20
2023-01-01T12:56:56.324Z,21.10
2023-01-01T12:59:33.044Z,21.10
2023-01-01T13:02:10.272Z,21.10
2023-01-01T13:04:38.653Z,21.00
2023-01-01T13:07:13.090Z,21.00
2023-01-01T13:09:48.234Z,21.00
2023-01-01T13:12:20.817Z,21.00
2023-01-01T13:14:52.125Z,21.00
2023-01-01T13:17:30.275Z,21.00
2023-01-01T13:20:26.691Z,21.00
2023-01-01T13:22:54.360Z,20.90
2023-01-01T13:25:24.614Z,20.90
2023-01-01T13:27:57.720Z,20.90
2023-01-01T13:30:37.264Z,20.90
2023-01-01T13:33:31.238Z,21.00
2023-01-01T13:36:12.788Z,21.00
2023-01-01T13:38:46.788Z,21.00
2023-01-01T13:41:45.985Z,21.00
2023-01-01T13:44:21.787Z,21.10
2023-01-01T13:47:20.248Z,21.10
2023-01-01T13:50:09.533Z,21.10
2023-01-01T13:52:56.605Z,21.30
2023-01-01T13:56:06.002Z,21.40
2023-01-01T13:59:14.051Z,21.60
2023-01-01T14:01:48.152Z,21.80
2023-01-01T14:04:32.554Z,22.00
2023-01-01T14:07:40.870Z,22.10
2023-01-01T14:10:29.521Z,22.30
2023-01-01T14:13:05.618Z,22.40
2023-01-01T14:15:40.349Z,22.40
2023-01-01T14:18:14.579Z,22.30
2023-01-01T14:20:46.061Z,22.20
2023-01-01T14:23:41.055Z,22.10
2023-01-01T14:26:15.174Z,22.00
2023-01-01T14:28:43.355Z,21.80
2023-01-01T14:31:18.312Z,21.60
2023-01-01T14:33:46.225Z,21.30
2023-01-01T14:36:23.457Z,21.20
2023-01-01T14:38:53.813Z,20.90
2023-01-01T14:41:32.749Z,20.80
2023-01-01T14:44:04.193Z,20.50
2023-01-01T14:46:31.634Z,20.40
2023-01-01T14:49:07.176Z,20.20
2023-01-01T14:51:36.094Z,20.00
2023-01-01T14:54:06.615Z,19.90
2023-01-01T14:56:38.523Z,19.70
2023-01-01T14:59:26.542Z,19.60
2023-01-01T15:02:13.295Z,19.40
2023-01-01T15:04:41.400Z,19.30
2023-01-01T15:07:31.397Z,19.20
2023-01-01T15:10:02.306Z,19.10
2023-01-01T15:12:30.649Z,18.90
2023-01-01T15:14:58.231Z,18.80
2023-01-01T15:17:27.080Z,18.70
2023-01-01T15:20:07.603Z,18.60
2023-01-01T15:22:39.098Z,18.50
2023-01-01T15:25:13.585Z,18.40
2023-01-01T15:27:40.559Z,18.30
2023-01-01T15:30:22.242Z,18.20
2023-01-01T15:32:49.258Z,18.10
2023-01-01T15:35:31.439Z,18.00
2023-01-01T15:38:16.582Z,17.80
2023-01-01T15:40:49.409Z,17.80
2023-01-01T15:43:29.601Z,17.70
2023-01-01T15:46:20.143Z,17.50
2023-01-01T15:48:51.425Z,17.40
2023-01-01T15:51:22.987Z,17.30
2023-01-01T15:54:04.950Z,17.20
2023-01-01T15:56:40.651Z,17.20
2023-01-01T15:59:23.886Z,17.10
2023-01-01T16:01:51.833Z,16.90
2023-01-01T16:04:36.926Z,16.80
2023-01-01T16:07:03.830Z,16.80
2023-01-01T16:09:30.665Z,16.70
2023-01-01T16:11:59.401Z,16.60
2023-01-01T16:14:26.323Z,16.50
2023-01-01T16:17:00.899Z,16.40
2023-01-01T16:19:31.636Z,16.40
2023-01-01T16:21:58.767Z,16.30
2023-01-01T16:24:25.684Z,16.20
2023-01-01T16:26:53.112Z,16.10
2023-01-01T16:29:20.060Z,16.10
2023-01-01T16:31:49.801Z,16.00
2023-01-01T16:34:16.640Z,15.90
2023-01-01T16:36:44.810Z,15.90
2023-01-01T16:39:12.030Z,15.80
2023-01-01T16:41:43.800Z,15.70
2023-01-01T16:44:17.432Z,15.70
2023-01-01T16:46:44.485Z,15.60
2023-01-01T16:49:11.702Z,15.50
2023-01-01T16:51:43.394Z,15.50
2023-01-01T16:54:11.065Z,15.40
2023-01-01T16:56:38.182Z,15.30
2023-01-01T16:59:05.148Z,15.30
2023-01-01T17:01:32.321Z,15.30
2023-01-01T17:04:00.402Z,15.20
2023-01-01T17:06:27.577Z,15.10
2023-01-01T17:08:54.560Z,15.10
2023-01-01T17:11:22.539Z,15.00
2023-01-01T17:13:49.537Z,14.90
2023-01-01T17:16:25.942Z,14.90
2023-01-01T17:19:14.431Z,14.80
2023-01-01T17:21:42.258Z,14.80
2023-01-01T17:24:09.286Z,14.70
2023-01-01T17:26:36.281Z,14.60
2023-01-01T17:29:03.361Z,14.60
2023-01-01T17:31:31.135Z,14.50
2023-01-01T17:34:01.091Z,14.40
2023-01-01T17:36:28.114Z,14.40
2023-01-01T17:38:56.127Z,14.40
2023-01-01T17:41:24.509Z,14.30
2023-01-01T17:43:52.680Z,14.30
2023-01-01T17:46:28.395Z,14.20
2023-01-01T17:48:55.700Z,14.20
2023-01-01T17:51:23.199Z,14.10
2023-01-01T17:53:50.546Z,14.10
2023-01-01T17:56:19.934Z,14.00
2023-01-01T17:58:49.255Z,14.00
2023-01-01T18:01:32.174Z,13.90
2023-01-01T18:04:08.501Z,13.90
2023-01-01T18:06:42.006Z,13.90
2023-01-01T18:09:13.364Z,13.80
2023-01-01T18:11:41.252Z,13.80
2023-01-01T18:14:08.438Z,13.70
2023-01-01T18:16:38.936Z,13.70
2023-01-01T18:19:06.862Z,13.60
2023-01-01T18:21:35.162Z,13.60
2023-01-01T18:24:12.221Z,13.60
2023-01-01T18:26:39.709Z,13.50
2023-01-01T18:29:07.397Z,13.50
2023-01-01T18:31:35.607Z,13.40
2023-01-01T18:34:04.657Z,13.40
2023-01-01T18:37:28.615Z,13.40
2023-01-01T18:39:59.035Z,13.30
2023-01-01T18:45:37.895Z,13.20
2023-01-01T18:48:13.297Z,13.20
2023-01-01T18:50:40.136Z,13.20
2023-01-01T18:53:16.899Z,13.10
2023-01-01T18:55:43.865Z,13.10
2023-01-01T18:58:18.961Z,13.10
2023-01-01T19:00:46.150Z,13.00
2023-01-01T19:03:33.599Z,12.90
2023-01-01T19:06:35.702Z,12.90
2023-01-01T19:09:26.716Z,12.90
2023-01-01T19:12:47.601Z,12.80
2023-01-01T19:15:20.375Z,12.80
2023-01-01T19:17:56.857Z,12.70
2023-01-01T19:20:24.802Z,12.70
2023-01-01T19:22:51.875Z,12.70
2023-01-01T19:25:34.815Z,12.60
2023-01-01T19:28:29.815Z,12.60
2023-01-01T19:30:57.300Z,12.50
2023-01-01T19:33:24.245Z,12.60
2023-01-01T19:35:51.193Z,12.50
2023-01-01T19:39:14.217Z,12.50
2023-01-01T19:41:50.272Z,12.50
2023-01-01T19:48:26.403Z,12.40
2023-01-01T19:50:53.441Z,12.50
2023-01-01T19:53:20.545Z,12.40
2023-01-01T19:55:47.427Z,12.40
2023-01-01T19:58:14.385Z,12.30
2023-01-01T20:00:41.344Z,12.30
2023-01-01T20:03:51.606Z,12.30
2023-01-01T20:05:55.103Z,12.30
2023-01-01T20:08:22.146Z,12.30
2023-01-01T20:10:48.999Z,12.30
2023-01-01T20:13:15.810Z,12.30
2023-01-01T20:15:46.691Z,12.20
2023-01-01T20:18:13.983Z,12.20
2023-01-01T20:20:59.281Z,12.20
2023-01-01T20:23:26.151Z,12.20
2023-01-01T20:25:53.098Z,12.20
2023-01-01T20:28:38.231Z,12.10
2023-01-01T20:33:58.096Z,12.20
2023-01-01T20:36:43.497Z,12.20
2023-01-01T20:39:10.413Z,12.20
2023-01-01T20:41:37.566Z,12.20
2023-01-01T20:44:04.586Z,12.20
2023-01-01T20:46:31.574Z,12.20
2023-01-01T20:48:58.648Z,12.20
2023-01-01T20:51:25.572Z,12.20
2023-01-01T20:53:52.506Z,12.10
2023-01-01T20:56:19.552Z,12.20
2023-01-01T20:58:50.282Z,12.20
2023-01-01T21:01:19.119Z,12.20
2023-01-01T21:03:46.195Z,12.20
2023-01-01T21:06:15.977Z,12.20
2023-01-01T21:08:46.944Z,12.20
2023-01-01T21:11:15.309Z,12.20
2023-01-01T21:13:44.511Z,12.10
2023-01-01T21:16:28.953Z,12.10
2023-01-01T21:18:57.211Z,12.10
2023-01-01T21:21:37.071Z,12.10
2023-01-01T21:24:22.593Z,12.00
2023-01-01T21:27:24.813Z,12.10
2023-01-01T21:29:56.012Z,12.00
2023-01-01T21:32:39.290Z,12.00
2023-01-01T21:35:35.295Z,12.00
2023-01-01T21:38:16.597Z,12.00
2023-01-01T21:40:59.414Z,12.00
2023-01-01T21:43:32.219Z,11.90
2023-01-01T21:46:33.125Z,11.90
2023-01-01T21:49:02.884Z,11.90
2023-01-01T21:52:01.703Z,11.80
2023-01-01T21:54:38.498Z,11.80
2023-01-01T21:57:23.429Z,11.80
2023-01-01T21:59:51.842Z,11.70
2023-01-01T22:02:34.430Z,11.70
2023-01-01T22:05:30.380Z,11.70
2023-01-01T22:07:59.177Z,11.60
2023-01-01T22:10:36.008Z,11.60
2023-01-01T22:13:03.105Z,11.50
2023-01-01T22:15:38.978Z,11.50
2023-01-01T22:18:11.850Z,11.40
2023-01-01T22:20:41.811Z,11.40
2023-01-01T22:23:40.542Z,11.40
2023-01-01T22:26:24.730Z,11.30
2023-01-01T22:28:59.724Z,11.20
2023-01-01T22:31:32.173Z,11.30
2023-01-01T22:34:02.113Z,11.00
2023-01-01T22:36:36.349Z,11.00
2023-01-01T22:39:26.456Z,11.00
2023-01-01T22:41:53.413Z,10.90
2023-01-01T22:44:20.823Z,10.80
2023-01-01T22:46:48.153Z,10.80
2023-01-01T22:49:34.374Z,10.70
2023-01-01T22:52:03.633Z,10.60
2023-01-01T22:54:30.644Z,10.50
2023-01-01T22:56:57.498Z,10.50
2023-01-01T22:59:24.303Z,10.40
2023-01-01T23:01:51.232Z,10.30
2023-01-01T23:04:18.135Z,10.30
2023-01-01T23:06:45.292Z,10.20
2023-01-01T23:09:12.546Z,10.20
2023-01-01T23:11:39.985Z,10.10
2023-01-01T23:14:25.491Z,10.10
2023-01-01T23:16:52.354Z,10.10
2023-01-01T23:19:19.418Z,10.10
2023-01-01T23:21:46.907Z,10.10
2023-01-01T23:24:20.349Z,10.10
2023-01-01T23:26:49.053Z,10.00
2023-01-01T23:29:17.953Z,9.90
2023-01-01T23:31:46.182Z,9.90
2023-01-01T23:34:13.730Z,9.80
2023-01-01T23:36:43.007Z,9.80
2023-01-01T23:39:09.856Z,9.80
2023-01-01T23:41:36.738Z,9.80
2023-01-01T23:44:03.661Z,9.70
2023-01-01T23:46:34.539Z,9.70
2023-01-01T23:49:05.692Z,9.70
2023-01-01T23:51:33.900Z,9.70
2023-01-01T23:54:00.744Z,9.70
2023-01-01T23:56:27.594Z,9.70
2023-01-01T23:58:54.400Z,9.70
